sensor_id;sensor_type;location;lat;lon;timestamp;pressure;altitude;pressure_sealevel;temperature;humidity
23953;BME280;12163;49.316;6.092;2024-02-21T00:01:18;100378.50;;;9.23;78.04
23953;BME280;12163;49.316;6.092;2024-02-21T00:03:46;100377.13;;;9.21;78.18
23953;BME280;12163;49.316;6.092;2024-02-21T00:06:13;100379.56;;;9.22;78.48
23953;BME280;12163;49.316;6.092;2024-02-21T00:08:39;100366.66;;;9.24;78.32
23953;BME280;12163;49.316;6.092;2024-02-21T00:11:06;100373.66;;;9.25;77.96
23953;BME280;12163;49.316;6.092;2024-02-21T00:13:34;100364.53;;;9.26;78.04
23953;BME280;12163;49.316;6.092;2024-02-21T00:16:01;100354.84;;;9.30;78.04
23953;BME280;12163;49.316;6.092;2024-02-21T00:18:27;100354.31;;;9.28;77.81
23953;BME280;12163;49.316;6.092;2024-02-21T00:20:56;100349.97;;;9.27;77.86
23953;BME280;12163;49.316;6.092;2024-02-21T00:23:22;100340.56;;;9.25;77.49
23953;BME280;12163;49.316;6.092;2024-02-21T00:25:49;100338.38;;;9.22;77.59
23953;BME280;12163;49.316;6.092;2024-02-21T00:28:16;100335.38;;;9.18;77.59
23953;BME280;12163;49.316;6.092;2024-02-21T00:30:43;100344.78;;;9.16;77.31
23953;BME280;12163;49.316;6.092;2024-02-21T00:33:10;100344.22;;;9.14;77.48
23953;BME280;12163;49.316;6.092;2024-02-21T00:35:37;100343.94;;;9.10;77.76
23953;BME280;12163;49.316;6.092;2024-02-21T00:38:03;100347.66;;;9.09;77.61
23953;BME280;12163;49.316;6.092;2024-02-21T00:40:30;100344.44;;;9.07;77.82
23953;BME280;12163;49.316;6.092;2024-02-21T00:42:57;100345.56;;;9.11;77.70
23953;BME280;12163;49.316;6.092;2024-02-21T00:45:24;100347.47;;;9.16;77.86
23953;BME280;12163;49.316;6.092;2024-02-21T00:47:50;100332.38;;;9.15;77.51
23953;BME280;12163;49.316;6.092;2024-02-21T00:50:17;100324.03;;;9.11;77.29
23953;BME280;12163;49.316;6.092;2024-02-21T00:52:43;100320.19;;;9.07;77.52
23953;BME280;12163;49.316;6.092;2024-02-21T00:55:11;100318.03;;;9.04;77.59
23953;BME280;12163;49.316;6.092;2024-02-21T00:57:38;100306.16;;;9.00;77.67
23953;BME280;12163;49.316;6.092;2024-02-21T01:00:05;100292.13;;;8.98;77.76
23953;BME280;12163;49.316;6.092;2024-02-21T01:02:32;100302.91;;;8.98;77.68
23953;BME280;12163;49.316;6.092;2024-02-21T01:04:59;100306.09;;;8.95;77.63
23953;BME280;12163;49.316;6.092;2024-02-21T01:07:25;100307.19;;;8.94;77.53
23953;BME280;12163;49.316;6.092;2024-02-21T01:09:52;100298.28;;;8.94;77.87
23953;BME280;12163;49.316;6.092;2024-02-21T01:12:19;100301.78;;;8.94;77.93
23953;BME280;12163;49.316;6.092;2024-02-21T01:14:46;100296.94;;;8.91;77.61
23953;BME280;12163;49.316;6.092;2024-02-21T01:17:13;100302.31;;;8.91;77.74
23953;BME280;12163;49.316;6.092;2024-02-21T01:19:39;100298.22;;;8.89;77.69
23953;BME280;12163;49.316;6.092;2024-02-21T01:22:06;100300.63;;;8.85;77.80
23953;BME280;12163;49.316;6.092;2024-02-21T01:24:33;100304.38;;;8.84;77.70
23953;BME280;12163;49.316;6.092;2024-02-21T01:27:00;100302.50;;;8.85;78.22
23953;BME280;12163;49.316;6.092;2024-02-21T01:29:26;100309.25;;;8.87;77.83
23953;BME280;12163;49.316;6.092;2024-02-21T01:31:53;100313.00;;;8.86;77.79
23953;BME280;12163;49.316;6.092;2024-02-21T01:34:20;100309.25;;;8.87;77.81
23953;BME280;12163;49.316;6.092;2024-02-21T01:36:47;100313.06;;;8.91;77.82
23953;BME280;12163;49.316;6.092;2024-02-21T01:39:14;100322.78;;;8.92;77.75
23953;BME280;12163;49.316;6.092;2024-02-21T01:41:40;100323.00;;;8.91;77.66
23953;BME280;12163;49.316;6.092;2024-02-21T01:44:07;100311.94;;;8.87;77.73
23953;BME280;12163;49.316;6.092;2024-02-21T01:46:34;100301.13;;;8.82;77.74
23953;BME280;12163;49.316;6.092;2024-02-21T01:49:01;100292.50;;;8.80;77.39
23953;BME280;12163;49.316;6.092;2024-02-21T01:51:28;100293.06;;;8.82;77.74
23953;BME280;12163;49.316;6.092;2024-02-21T01:53:55;100268.59;;;8.84;77.93
23953;BME280;12163;49.316;6.092;2024-02-21T01:56:23;100272.34;;;8.83;77.58
23953;BME280;12163;49.316;6.092;2024-02-21T01:58:51;100262.38;;;8.83;77.75
23953;BME280;12163;49.316;6.092;2024-02-21T02:01:18;100267.25;;;8.86;77.87
23953;BME280;12163;49.316;6.092;2024-02-21T02:03:48;100258.63;;;8.84;77.56
23953;BME280;12163;49.316;6.092;2024-02-21T02:06:15;100251.09;;;8.86;77.83
23953;BME280;12163;49.316;6.092;2024-02-21T02:08:42;100249.00;;;8.88;77.82
23953;BME280;12163;49.316;6.092;2024-02-21T02:11:09;100239.84;;;8.89;77.71
23953;BME280;12163;49.316;6.092;2024-02-21T02:13:36;100225.31;;;8.90;77.71
23953;BME280;12163;49.316;6.092;2024-02-21T02:16:03;100229.09;;;8.89;77.62
23953;BME280;12163;49.316;6.092;2024-02-21T02:18:30;100223.69;;;8.89;77.86
23953;BME280;12163;49.316;6.092;2024-02-21T02:20:57;100231.78;;;8.89;77.36
23953;BME280;12163;49.316;6.092;2024-02-21T02:23:31;100225.56;;;8.89;77.63
23953;BME280;12163;49.316;6.092;2024-02-21T02:25:58;100223.69;;;8.89;77.69
23953;BME280;12163;49.316;6.092;2024-02-21T02:28:25;100221.56;;;8.91;77.49
23953;BME280;12163;49.316;6.092;2024-02-21T02:30:51;100215.66;;;8.94;77.86
23953;BME280;12163;49.316;6.092;2024-02-21T02:33:18;100204.34;;;8.92;77.74
23953;BME280;12163;49.316;6.092;2024-02-21T02:35:45;100216.69;;;8.88;77.63
23953;BME280;12163;49.316;6.092;2024-02-21T02:38:12;100216.69;;;8.88;77.83
23953;BME280;12163;49.316;6.092;2024-02-21T02:40:40;100218.88;;;8.91;77.85
23953;BME280;12163;49.316;6.092;2024-02-21T02:43:08;100217.28;;;8.95;77.80
23953;BME280;12163;49.316;6.092;2024-02-21T02:45:34;100211.91;;;8.95;77.64
23953;BME280;12163;49.316;6.092;2024-02-21T02:48:01;100197.38;;;8.96;77.51
23953;BME280;12163;49.316;6.092;2024-02-21T02:50:28;100195.75;;;8.95;77.77
23953;BME280;12163;49.316;6.092;2024-02-21T02:52:55;100190.91;;;8.97;77.46
23953;BME280;12163;49.316;6.092;2024-02-21T02:55:22;100203.53;;;8.97;77.40
23953;BME280;12163;49.316;6.092;2024-02-21T02:57:49;100192.78;;;8.97;77.86
23953;BME280;12163;49.316;6.092;2024-02-21T03:00:16;100183.34;;;8.94;77.38
23953;BME280;12163;49.316;6.092;2024-02-21T03:02:45;100176.88;;;8.90;77.60
23953;BME280;12163;49.316;6.092;2024-02-21T03:05:17;100181.41;;;8.85;77.70
23953;BME280;12163;49.316;6.092;2024-02-21T03:07:45;100185.72;;;8.86;77.53
23953;BME280;12163;49.316;6.092;2024-02-21T03:10:12;100187.09;;;8.88;78.04
23953;BME280;12163;49.316;6.092;2024-02-21T03:12:39;100195.16;;;8.88;77.57
23953;BME280;12163;49.316;6.092;2024-02-21T03:15:06;100174.13;;;8.85;77.67
23953;BME280;12163;49.316;6.092;2024-02-21T03:17:33;100160.13;;;8.83;77.70
23953;BME280;12163;49.316;6.092;2024-02-21T03:20:04;100142.31;;;8.77;77.86
23953;BME280;12163;49.316;6.092;2024-02-21T03:22:32;100131.53;;;8.72;77.66
23953;BME280;12163;49.316;6.092;2024-02-21T03:25:02;100128.25;;;8.65;77.89
23953;BME280;12163;49.316;6.092;2024-02-21T03:27:28;100127.66;;;8.58;77.88
23953;BME280;12163;49.316;6.092;2024-02-21T03:29:55;100131.38;;;8.52;77.82
23953;BME280;12163;49.316;6.092;2024-02-21T03:32:21;100133.22;;;8.47;78.32
23953;BME280;12163;49.316;6.092;2024-02-21T03:34:48;100130.25;;;8.43;78.26
23953;BME280;12163;49.316;6.092;2024-02-21T03:37:15;100117.81;;;8.37;78.42
23953;BME280;12163;49.316;6.092;2024-02-21T03:39:41;100111.84;;;8.31;78.16
23953;BME280;12163;49.316;6.092;2024-02-21T03:42:08;100114.00;;;8.29;78.31
23953;BME280;12163;49.316;6.092;2024-02-21T03:44:34;100108.31;;;8.25;78.23
23953;BME280;12163;49.316;6.092;2024-02-21T03:47:01;100109.66;;;8.23;78.53
23953;BME280;12163;49.316;6.092;2024-02-21T03:49:28;100107.19;;;8.21;78.58
23953;BME280;12163;49.316;6.092;2024-02-21T03:51:56;100112.81;;;8.20;78.96
23953;BME280;12163;49.316;6.092;2024-02-21T03:54:22;100108.50;;;8.19;79.03
23953;BME280;12163;49.316;6.092;2024-02-21T03:56:49;100091.00;;;8.16;79.08
23953;BME280;12163;49.316;6.092;2024-02-21T03:59:16;100082.63;;;8.13;79.36
23953;BME280;12163;49.316;6.092;2024-02-21T04:01:42;100075.31;;;8.08;79.34
23953;BME280;12163;49.316;6.092;2024-02-21T04:04:10;100076.66;;;8.06;79.48
23953;BME280;12163;49.316;6.092;2024-02-21T04:06:46;100077.19;;;8.03;79.63
23953;BME280;12163;49.316;6.092;2024-02-21T04:09:12;100078.78;;;8.04;79.22
23953;BME280;12163;49.316;6.092;2024-02-21T04:11:39;100078.78;;;8.04;79.23
23953;BME280;12163;49.316;6.092;2024-02-21T04:14:05;100086.31;;;8.02;79.85
23953;BME280;12163;49.316;6.092;2024-02-21T04:16:32;100099.75;;;8.02;79.76
23953;BME280;12163;49.316;6.092;2024-02-21T04:18:58;100094.09;;;8.03;79.52
23953;BME280;12163;49.316;6.092;2024-02-21T04:21:25;100083.63;;;8.02;79.64
23953;BME280;12163;49.316;6.092;2024-02-21T04:23:52;100086.78;;;7.99;79.45
23953;BME280;12163;49.316;6.092;2024-02-21T04:26:18;100063.38;;;7.94;79.79
23953;BME280;12163;49.316;6.092;2024-02-21T04:28:45;100069.56;;;7.95;79.89
23953;BME280;12163;49.316;6.092;2024-02-21T04:31:12;100069.53;;;7.90;79.64
23953;BME280;12163;49.316;6.092;2024-02-21T04:33:39;100073.28;;;7.89;80.16
23953;BME280;12163;49.316;6.092;2024-02-21T04:36:05;100073.28;;;7.89;79.77
23953;BME280;12163;49.316;6.092;2024-02-21T04:38:32;100075.97;;;7.89;80.20
23953;BME280;12163;49.316;6.092;2024-02-21T04:40:58;100073.78;;;7.86;80.09
23953;BME280;12163;49.316;6.092;2024-02-21T04:43:25;100071.84;;;7.81;80.02
23953;BME280;12163;49.316;6.092;2024-02-21T04:45:52;100070.75;;;7.77;80.27
23953;BME280;12163;49.316;6.092;2024-02-21T04:48:20;100068.31;;;7.76;79.88
23953;BME280;12163;49.316;6.092;2024-02-21T04:50:47;100073.13;;;7.74;80.12
23953;BME280;12163;49.316;6.092;2024-02-21T04:53:13;100062.38;;;7.74;79.85
23953;BME280;12163;49.316;6.092;2024-02-21T04:55:40;100069.63;;;7.73;80.62
23953;BME280;12163;49.316;6.092;2024-02-21T04:58:07;100071.50;;;7.73;80.84
23953;BME280;12163;49.316;6.092;2024-02-21T05:00:34;100072.06;;;7.75;80.76
23953;BME280;12163;49.316;6.092;2024-02-21T05:03:00;100070.75;;;7.77;80.51
23953;BME280;12163;49.316;6.092;2024-02-21T05:05:27;100067.25;;;7.77;80.42
23953;BME280;12163;49.316;6.092;2024-02-21T05:07:54;100067.25;;;7.77;80.70
23953;BME280;12163;49.316;6.092;2024-02-21T05:10:20;100077.50;;;7.80;80.96
23953;BME280;12163;49.316;6.092;2024-02-21T05:12:47;100067.88;;;7.84;80.83
23953;BME280;12163;49.316;6.092;2024-02-21T05:15:14;100074.59;;;7.86;81.09
23953;BME280;12163;49.316;6.092;2024-02-21T05:17:40;100065.22;;;7.89;80.99
23953;BME280;12163;49.316;6.092;2024-02-21T05:20:07;100052.34;;;7.91;80.81
23953;BME280;12163;49.316;6.092;2024-02-21T05:22:34;100053.94;;;7.92;80.75
23953;BME280;12163;49.316;6.092;2024-02-21T05:25:01;100057.19;;;7.94;80.34
23953;BME280;12163;49.316;6.092;2024-02-21T05:27:27;100039.97;;;7.90;80.33
23953;BME280;12163;49.316;6.092;2024-02-21T05:29:54;100036.72;;;7.88;80.46
23953;BME280;12163;49.316;6.092;2024-02-21T05:32:21;100040.25;;;7.88;80.33
23953;BME280;12163;49.316;6.092;2024-02-21T05:34:50;100030.25;;;7.84;80.16
23953;BME280;12163;49.316;6.092;2024-02-21T06:00:17;100005.78;;;9.14;80.55
23953;BME280;12163;49.316;6.092;2024-02-21T06:02:44;100004.97;;;9.19;78.80
23953;BME280;12163;49.316;6.092;2024-02-21T06:05:10;100000.94;;;9.11;77.99
23953;BME280;12163;49.316;6.092;2024-02-21T06:07:38;100004.38;;;8.97;77.58
23953;BME280;12163;49.316;6.092;2024-02-21T06:10:06;99996.50;;;8.80;77.18
23953;BME280;12163;49.316;6.092;2024-02-21T06:12:33;99988.34;;;8.65;77.41
23953;BME280;12163;49.316;6.092;2024-02-21T06:15:00;99985.63;;;8.55;77.27
23953;BME280;12163;49.316;6.092;2024-02-21T06:17:26;99989.34;;;8.44;77.43
23953;BME280;12163;49.316;6.092;2024-02-21T06:19:53;99982.25;;;8.33;77.45
23953;BME280;12163;49.316;6.092;2024-02-21T06:22:19;99979.53;;;8.24;77.40
23953;BME280;12163;49.316;6.092;2024-02-21T06:24:46;99988.03;;;8.16;77.45
23953;BME280;12163;49.316;6.092;2024-02-21T06:27:13;99992.81;;;8.09;77.71
23953;BME280;12163;49.316;6.092;2024-02-21T06:29:41;99993.91;;;8.08;77.96
23953;BME280;12163;49.316;6.092;2024-02-21T06:32:08;99989.03;;;8.05;78.32
23953;BME280;12163;49.316;6.092;2024-02-21T06:34:35;99989.28;;;8.03;78.16
23953;BME280;12163;49.316;6.092;2024-02-21T06:37:01;99985.81;;;8.03;78.35
23953;BME280;12163;49.316;6.092;2024-02-21T06:39:28;99981.22;;;8.03;78.59
23953;BME280;12163;49.316;6.092;2024-02-21T06:41:56;99979.34;;;8.04;78.91
23953;BME280;12163;49.316;6.092;2024-02-21T06:44:28;99972.09;;;8.04;78.76
23953;BME280;12163;49.316;6.092;2024-02-21T06:46:55;99968.84;;;8.02;78.92
23953;BME280;12163;49.316;6.092;2024-02-21T06:49:21;99978.19;;;7.95;78.70
23953;BME280;12163;49.316;6.092;2024-02-21T06:51:48;99967.00;;;8.03;79.07
23953;BME280;12163;49.316;6.092;2024-02-21T06:54:14;99963.78;;;8.06;78.66
23953;BME280;12163;49.316;6.092;2024-02-21T07:24:43;99982.25;;;8.33;79.06
23953;BME280;12163;49.316;6.092;2024-02-21T07:27:09;99974.53;;;8.42;78.91
23953;BME280;12163;49.316;6.092;2024-02-21T07:29:36;99970.53;;;8.49;78.70
23953;BME280;12163;49.316;6.092;2024-02-21T07:32:03;99968.59;;;9.01;79.56
23953;BME280;12163;49.316;6.092;2024-02-21T07:34:30;99964.69;;;9.69;79.83
23953;BME280;12163;49.316;6.092;2024-02-21T07:36:57;99954.69;;;10.29;78.99
23953;BME280;12163;49.316;6.092;2024-02-21T07:39:24;99953.44;;;10.75;77.39
23953;BME280;12163;49.316;6.092;2024-02-21T07:41:50;99950.03;;;11.13;75.61
23953;BME280;12163;49.316;6.092;2024-02-21T07:44:17;99950.97;;;11.37;74.24
23953;BME280;12163;49.316;6.092;2024-02-21T07:46:43;99941.66;;;11.58;73.63
23953;BME280;12163;49.316;6.092;2024-02-21T07:49:10;99951.22;;;11.78;73.39
23953;BME280;12163;49.316;6.092;2024-02-21T07:51:36;99953.72;;;11.98;72.41
23953;BME280;12163;49.316;6.092;2024-02-21T07:54:03;99947.41;;;12.08;71.73
23953;BME280;12163;49.316;6.092;2024-02-21T07:56:30;99943.16;;;12.02;70.27
23953;BME280;12163;49.316;6.092;2024-02-21T07:58:57;99937.34;;;11.90;70.48
23953;BME280;12163;49.316;6.092;2024-02-21T08:01:24;99942.03;;;11.79;69.81
23953;BME280;12163;49.316;6.092;2024-02-21T08:03:51;99935.44;;;11.52;68.79
23953;BME280;12163;49.316;6.092;2024-02-21T08:06:17;99934.88;;;11.17;68.71
23953;BME280;12163;49.316;6.092;2024-02-21T08:08:44;99936.66;;;10.83;68.86
23953;BME280;12163;49.316;6.092;2024-02-21T08:11:11;99929.78;;;10.52;70.15
23953;BME280;12163;49.316;6.092;2024-02-21T08:13:38;99930.94;;;10.26;70.17
23953;BME280;12163;49.316;6.092;2024-02-21T08:16:04;99934.22;;;10.08;70.67
23953;BME280;12163;49.316;6.092;2024-02-21T08:18:31;99938.25;;;9.96;71.04
23953;BME280;12163;49.316;6.092;2024-02-21T08:20:58;99935.31;;;9.82;71.45
23953;BME280;12163;49.316;6.092;2024-02-21T08:23:38;99937.72;;;9.79;71.54
23953;BME280;12163;49.316;6.092;2024-02-21T08:26:05;99936.91;;;9.73;71.88
23953;BME280;12163;49.316;6.092;2024-02-21T08:28:32;99939.06;;;9.66;72.58
23953;BME280;12163;49.316;6.092;2024-02-21T08:30:58;99938.00;;;9.62;72.43
23953;BME280;12163;49.316;6.092;2024-02-21T08:33:25;99927.47;;;9.61;72.47
23953;BME280;12163;49.316;6.092;2024-02-21T08:35:52;99922.38;;;9.59;72.68
23953;BME280;12163;49.316;6.092;2024-02-21T08:38:18;99916.16;;;9.59;72.61
23953;BME280;12163;49.316;6.092;2024-02-21T08:40:45;99913.47;;;9.59;72.90
23953;BME280;12163;49.316;6.092;2024-02-21T08:43:11;99915.38;;;9.58;72.93
23953;BME280;12163;49.316;6.092;2024-02-21T08:45:38;99910.78;;;9.59;73.00
23953;BME280;12163;49.316;6.092;2024-02-21T08:48:05;99911.59;;;9.59;73.18
23953;BME280;12163;49.316;6.092;2024-02-21T08:50:32;99906.75;;;9.56;72.87
23953;BME280;12163;49.316;6.092;2024-02-21T08:52:59;99896.78;;;9.57;73.15
23953;BME280;12163;49.316;6.092;2024-02-21T08:55:25;99899.22;;;9.58;73.13
23953;BME280;12163;49.316;6.092;2024-02-21T08:57:52;99891.66;;;9.60;73.33
23953;BME280;12163;49.316;6.092;2024-02-21T09:00:19;99886.28;;;9.60;73.39
23953;BME280;12163;49.316;6.092;2024-02-21T09:02:50;99887.06;;;9.61;73.22
23953;BME280;12163;49.316;6.092;2024-02-21T09:05:16;99874.13;;;9.63;73.34
23953;BME280;12163;49.316;6.092;2024-02-21T09:07:43;99871.16;;;9.64;73.07
23953;BME280;12163;49.316;6.092;2024-02-21T09:10:10;99862.00;;;9.70;73.09
23953;BME280;12163;49.316;6.092;2024-02-21T09:12:36;99857.97;;;9.73;73.22
23953;BME280;12163;49.316;6.092;2024-02-21T09:15:03;99857.66;;;9.74;72.79
23953;BME280;12163;49.316;6.092;2024-02-21T09:17:30;99853.38;;;9.73;73.02
23953;BME280;12163;49.316;6.092;2024-02-21T09:19:57;99839.34;;;9.71;73.23
23953;BME280;12163;49.316;6.092;2024-02-21T09:22:29;99837.19;;;9.73;72.89
23953;BME280;12163;49.316;6.092;2024-02-21T09:24:56;99830.72;;;9.74;73.39
23953;BME280;12163;49.316;6.092;2024-02-21T09:27:22;99825.88;;;9.76;73.33
23953;BME280;12163;49.316;6.092;2024-02-21T09:29:49;99829.13;;;9.78;72.96
23953;BME280;12163;49.316;6.092;2024-02-21T09:32:15;99822.13;;;9.77;73.15
23953;BME280;12163;49.316;6.092;2024-02-21T09:34:42;99816.72;;;9.82;73.27
23953;BME280;12163;49.316;6.092;2024-02-21T09:37:09;99819.91;;;9.89;72.89
23953;BME280;12163;49.316;6.092;2024-02-21T09:39:36;99808.59;;;9.92;72.83
23953;BME280;12163;49.316;6.092;2024-02-21T09:42:06;99817.19;;;9.94;72.72
23953;BME280;12163;49.316;6.092;2024-02-21T09:44:39;99816.69;;;9.87;72.09
23953;BME280;12163;49.316;6.092;2024-02-21T09:47:32;99807.53;;;9.88;72.78
23953;BME280;12163;49.316;6.092;2024-02-21T09:50:01;99798.34;;;9.94;72.76
23953;BME280;12163;49.316;6.092;2024-02-21T09:52:30;99799.38;;;9.98;72.33
23953;BME280;12163;49.316;6.092;2024-02-21T09:54:58;99798.84;;;10.11;72.71
23953;BME280;12163;49.316;6.092;2024-02-21T09:57:26;99803.13;;;10.22;72.30
23953;BME280;12163;49.316;6.092;2024-02-21T09:59:55;99798.50;;;10.32;72.09
23953;BME280;12163;49.316;6.092;2024-02-21T10:02:22;99791.16;;;10.38;70.93
23953;BME280;12163;49.316;6.092;2024-02-21T10:04:49;99790.59;;;10.41;70.33
23953;BME280;12163;49.316;6.092;2024-02-21T10:07:16;99797.59;;;10.42;70.29
23953;BME280;12163;49.316;6.092;2024-02-21T10:09:43;99791.34;;;10.51;70.59
23953;BME280;12163;49.316;6.092;2024-02-21T10:12:12;99777.84;;;10.56;69.75
23953;BME280;12163;49.316;6.092;2024-02-21T10:14:39;99771.91;;;10.59;68.64
23953;BME280;12163;49.316;6.092;2024-02-21T10:17:06;99771.06;;;10.59;68.18
23953;BME280;12163;49.316;6.092;2024-02-21T10:19:37;99785.31;;;10.69;68.79
23953;BME280;12163;49.316;6.092;2024-02-21T10:22:06;99775.25;;;10.80;67.60
23953;BME280;12163;49.316;6.092;2024-02-21T10:24:35;99786.09;;;10.75;66.27
23953;BME280;12163;49.316;6.092;2024-02-21T10:27:06;99768.28;;;10.74;66.09
23953;BME280;12163;49.316;6.092;2024-02-21T10:29:35;99763.47;;;10.71;66.96
23953;BME280;12163;49.316;6.092;2024-02-21T10:32:08;99759.66;;;10.72;67.16
23953;BME280;12163;49.316;6.092;2024-02-21T10:34:37;99759.34;;;10.78;66.30
23953;BME280;12163;49.316;6.092;2024-02-21T10:37:07;99755.78;;;10.83;66.88
23953;BME280;12163;49.316;6.092;2024-02-21T10:39:41;99766.59;;;10.88;66.70
23953;BME280;12163;49.316;6.092;2024-02-21T10:42:10;99760.03;;;10.94;65.97
23953;BME280;12163;49.316;6.092;2024-02-21T10:44:38;99755.97;;;10.96;66.25
23953;BME280;12163;49.316;6.092;2024-02-21T10:47:12;99751.38;;;10.97;66.05
23953;BME280;12163;49.316;6.092;2024-02-21T10:49:44;99756.47;;;11.03;65.78
23953;BME280;12163;49.316;6.092;2024-02-21T10:55:28;99746.91;;;11.16;65.94
23953;BME280;12163;49.316;6.092;2024-02-21T10:57:58;99747.41;;;11.18;64.85
23953;BME280;12163;49.316;6.092;2024-02-21T11:00:25;99739.31;;;11.18;64.48
23953;BME280;12163;49.316;6.092;2024-02-21T11:02:57;99745.81;;;11.17;64.75
23953;BME280;12163;49.316;6.092;2024-02-21T11:05:25;99719.25;;;11.24;64.83
23953;BME280;12163;49.316;6.092;2024-02-21T11:07:52;99718.69;;;11.27;64.04
23953;BME280;12163;49.316;6.092;2024-02-21T11:10:25;99720.66;;;11.21;64.31
23953;BME280;12163;49.316;6.092;2024-02-21T11:12:54;99703.63;;;11.21;63.98
23953;BME280;12163;49.316;6.092;2024-02-21T11:15:26;99686.38;;;11.17;63.96
23953;BME280;12163;49.316;6.092;2024-02-21T11:17:55;99695.34;;;11.12;64.35
23953;BME280;12163;49.316;6.092;2024-02-21T11:20:34;99692.06;;;11.15;65.22
23953;BME280;12163;49.316;6.092;2024-02-21T11:23:01;99678.22;;;11.22;64.98
23953;BME280;12163;49.316;6.092;2024-02-21T11:25:29;99665.22;;;11.24;64.70
23953;BME280;12163;49.316;6.092;2024-02-21T11:28:03;99664.44;;;11.23;64.18
23953;BME280;12163;49.316;6.092;2024-02-21T11:30:31;99653.06;;;11.26;64.54
23953;BME280;12163;49.316;6.092;2024-02-21T11:33:03;99641.69;;;11.29;64.57
23953;BME280;12163;49.316;6.092;2024-02-21T11:35:34;99648.97;;;11.29;64.73
23953;BME280;12163;49.316;6.092;2024-02-21T11:38:11;99629.94;;;11.39;65.41
23953;BME280;12163;49.316;6.092;2024-02-21T11:40:44;99636.16;;;11.39;63.86
23953;BME280;12163;49.316;6.092;2024-02-21T11:43:11;99617.31;;;11.34;63.75
23953;BME280;12163;49.316;6.092;2024-02-21T11:45:37;99620.31;;;11.33;63.86
23953;BME280;12163;49.316;6.092;2024-02-21T11:48:06;99597.59;;;11.34;64.44
23953;BME280;12163;49.316;6.092;2024-02-21T11:50:36;99575.69;;;11.35;63.70
23953;BME280;12163;49.316;6.092;2024-02-21T11:53:03;99574.81;;;11.40;63.82
23953;BME280;12163;49.316;6.092;2024-02-21T11:55:30;99569.41;;;11.40;63.83
23953;BME280;12163;49.316;6.092;2024-02-21T11:57:57;99573.22;;;11.39;63.62
23953;BME280;12163;49.316;6.092;2024-02-21T12:00:25;99569.94;;;11.42;63.53
23953;BME280;12163;49.316;6.092;2024-02-21T12:02:52;99545.09;;;11.40;63.40
23953;BME280;12163;49.316;6.092;2024-02-21T12:05:19;99560.16;;;11.46;64.44
23953;BME280;12163;49.316;6.092;2024-02-21T12:07:46;99550.34;;;11.50;63.96
23953;BME280;12163;49.316;6.092;2024-02-21T12:10:13;99542.22;;;11.55;63.26
23953;BME280;12163;49.316;6.092;2024-02-21T12:12:40;99530.03;;;11.57;63.22
23953;BME280;12163;49.316;6.092;2024-02-21T12:15:07;99540.25;;;11.60;62.92
23953;BME280;12163;49.316;6.092;2024-02-21T12:17:39;99518.03;;;11.63;62.99
23953;BME280;12163;49.316;6.092;2024-02-21T12:20:06;99514.47;;;11.68;63.72
23953;BME280;12163;49.316;6.092;2024-02-21T12:22:43;99519.09;;;11.67;62.61
23953;BME280;12163;49.316;6.092;2024-02-21T12:25:17;99512.28;;;11.70;63.48
23953;BME280;12163;49.316;6.092;2024-02-21T12:27:46;99507.75;;;11.83;63.83
23953;BME280;12163;49.316;6.092;2024-02-21T12:30:13;99493.25;;;11.93;62.86
23953;BME280;12163;49.316;6.092;2024-02-21T12:32:39;99490.75;;;11.96;62.43
23953;BME280;12163;49.316;6.092;2024-02-21T12:35:07;99472.31;;;11.98;62.08
23953;BME280;12163;49.316;6.092;2024-02-21T12:37:34;99469.63;;;11.98;62.52
23953;BME280;12163;49.316;6.092;2024-02-21T12:40:05;99469.25;;;12.05;61.70
23953;BME280;12163;49.316;6.092;2024-02-21T12:42:33;99468.78;;;12.16;62.98
23953;BME280;12163;49.316;6.092;2024-02-21T12:45:02;99464.59;;;12.24;62.33
23953;BME280;12163;49.316;6.092;2024-02-21T12:47:29;99441.75;;;12.30;61.99
23953;BME280;12163;49.316;6.092;2024-02-21T12:49:56;99450.28;;;12.23;61.72
23953;BME280;12163;49.316;6.092;2024-02-21T12:52:23;99445.97;;;12.22;61.65
23953;BME280;12163;49.316;6.092;2024-02-21T12:54:51;99435.34;;;12.26;61.99
23953;BME280;12163;49.316;6.092;2024-02-21T12:57:18;99421.69;;;12.31;61.05
23953;BME280;12163;49.316;6.092;2024-02-21T12:59:44;99435.34;;;12.26;60.15
23953;BME280;12163;49.316;6.092;2024-02-21T13:02:11;99428.81;;;12.27;61.14
23953;BME280;12163;49.316;6.092;2024-02-21T13:04:37;99418.50;;;12.29;61.08
23953;BME280;12163;49.316;6.092;2024-02-21T13:07:07;99411.09;;;12.34;60.68
23953;BME280;12163;49.316;6.092;2024-02-21T13:09:34;99405.09;;;12.37;59.77
23953;BME280;12163;49.316;6.092;2024-02-21T13:12:02;99387.66;;;12.43;60.25
23953;BME280;12163;49.316;6.092;2024-02-21T13:14:28;99394.25;;;12.37;58.79
23953;BME280;12163;49.316;6.092;2024-02-21T13:16:55;99393.47;;;12.37;59.75
23953;BME280;12163;49.316;6.092;2024-02-21T13:19:22;99371.22;;;12.40;58.81
23953;BME280;12163;49.316;6.092;2024-02-21T13:21:48;99364.22;;;12.39;59.00
23953;BME280;12163;49.316;6.092;2024-02-21T13:24:20;99357.59;;;12.31;58.73
23953;BME280;12163;49.316;6.092;2024-02-21T13:26:47;99341.34;;;12.31;59.00
23953;BME280;12163;49.316;6.092;2024-02-21T13:29:13;99349.69;;;12.21;58.51
23953;BME280;12163;49.316;6.092;2024-02-21T13:31:39;99333.75;;;12.20;59.17
23953;BME280;12163;49.316;6.092;2024-02-21T13:34:06;99315.59;;;12.20;58.85
23953;BME280;12163;49.316;6.092;2024-02-21T13:36:36;99309.69;;;12.32;59.21
23953;BME280;12163;49.316;6.092;2024-02-21T13:39:03;99309.50;;;12.28;58.20
23953;BME280;12163;49.316;6.092;2024-02-21T13:41:31;99324.00;;;12.32;58.14
23953;BME280;12163;49.316;6.092;2024-02-21T14:12:51;99271.41;;;12.25;57.69
23953;BME280;12163;49.316;6.092;2024-02-21T14:15:17;99263.00;;;12.26;57.41
23953;BME280;12163;49.316;6.092;2024-02-21T14:17:44;99269.41;;;12.30;57.55
23953;BME280;12163;49.316;6.092;2024-02-21T14:20:11;99272.31;;;12.34;57.40
23953;BME280;12163;49.316;6.092;2024-02-21T14:22:43;99256.13;;;12.42;58.42
23953;BME280;12163;49.316;6.092;2024-02-21T14:25:10;99251.75;;;12.46;57.16
23953;BME280;12163;49.316;6.092;2024-02-21T14:27:36;99254.94;;;12.48;57.22